sensor_id;sensor_type;location;lat;lon;timestamp;P1;durP1;ratioP1;P2;durP2;ratioP2
19191;SDS011;9728;48.194;16.346;2023-03-24T00:04:56;7.78;;;4.82;;
19191;SDS011;9728;48.194;16.346;2023-03-24T00:10:01;7.40;;;4.43;;
19191;SDS011;9728;48.194;16.346;2023-03-24T00:15:06;7.97;;;5.57;;
19191;SDS011;9728;48.194;16.346;2023-03-24T00:20:12;6.85;;;4.85;;
19191;SDS011;9728;48.194;16.346;2023-03-24T00:25:19;8.98;;;5.03;;
19191;SDS011;9728;48.194;16.346;2023-03-24T00:30:24;9.77;;;4.88;;
19191;SDS011;9728;48.194;16.346;2023-03-24T00:35:28;6.75;;;4.90;;
19191;SDS011;9728;48.194;16.346;2023-03-24T00:40:33;9.13;;;4.72;;
19191;SDS011;9728;48.194;16.346;2023-03-24T00:45:36;6.15;;;4.55;;
19191;SDS011;9728;48.194;16.346;2023-03-24T00:50:48;5.88;;;4.35;;
19191;SDS011;9728;48.194;16.346;2023-03-24T00:55:54;6.95;;;4.72;;
19191;SDS011;9728;48.194;16.346;2023-03-24T01:00:59;6.05;;;4.40;;
19191;SDS011;9728;48.194;16.346;2023-03-24T01:06:02;7.65;;;4.70;;
19191;SDS011;9728;48.194;16.346;2023-03-24T01:11:07;9.30;;;4.57;;
19191;SDS011;9728;48.194;16.346;2023-03-24T01:16:10;6.72;;;4.90;;
19191;SDS011;9728;48.194;16.346;2023-03-24T01:21:14;6.15;;;4.63;;
19191;SDS011;9728;48.194;16.346;2023-03-24T01:26:20;6.90;;;4.30;;
19191;SDS011;9728;48.194;16.346;2023-03-24T01:31:23;6.15;;;3.85;;
19191;SDS011;9728;48.194;16.346;2023-03-24T01:36:27;7.88;;;5.00;;
19191;SDS011;9728;48.194;16.346;2023-03-24T01:41:34;7.45;;;5.35;;
19191;SDS011;9728;48.194;16.346;2023-03-24T01:46:41;7.60;;;5.22;;
19191;SDS011;9728;48.194;16.346;2023-03-24T01:51:45;6.75;;;4.95;;
19191;SDS011;9728;48.194;16.346;2023-03-24T01:56:58;7.55;;;4.32;;
19191;SDS011;9728;48.194;16.346;2023-03-24T02:02:08;6.93;;;4.03;;
19191;SDS011;9728;48.194;16.346;2023-03-24T02:07:30;6.78;;;4.00;;
19191;SDS011;9728;48.194;16.346;2023-03-24T02:13:03;7.70;;;4.00;;
19191;SDS011;9728;48.194;16.346;2023-03-24T02:18:10;5.90;;;4.30;;
19191;SDS011;9728;48.194;16.346;2023-03-24T02:23:44;5.38;;;3.47;;
19191;SDS011;9728;48.194;16.346;2023-03-24T02:29:03;5.60;;;4.20;;
19191;SDS011;9728;48.194;16.346;2023-03-24T02:34:41;5.53;;;4.65;;
19191;SDS011;9728;48.194;16.346;2023-03-24T02:45:40;5.47;;;3.67;;
19191;SDS011;9728;48.194;16.346;2023-03-24T02:50:55;5.15;;;3.80;;
19191;SDS011;9728;48.194;16.346;2023-03-24T02:56:06;4.70;;;3.55;;
19191;SDS011;9728;48.194;16.346;2023-03-24T03:01:17;4.93;;;3.60;;
19191;SDS011;9728;48.194;16.346;2023-03-24T03:06:43;4.75;;;3.50;;
19191;SDS011;9728;48.194;16.346;2023-03-24T03:11:55;4.25;;;2.88;;
19191;SDS011;9728;48.194;16.346;2023-03-24T03:17:02;3.60;;;3.25;;
19191;SDS011;9728;48.194;16.346;2023-03-24T03:22:11;4.13;;;3.45;;
19191;SDS011;9728;48.194;16.346;2023-03-24T03:27:19;4.43;;;3.13;;
19191;SDS011;9728;48.194;16.346;2023-03-24T03:32:32;5.57;;;3.65;;
19191;SDS011;9728;48.194;16.346;2023-03-24T03:37:40;3.85;;;2.92;;
19191;SDS011;9728;48.194;16.346;2023-03-24T03:42:53;6.50;;;4.05;;
19191;SDS011;9728;48.194;16.346;2023-03-24T03:47:56;8.05;;;5.25;;
19191;SDS011;9728;48.194;16.346;2023-03-24T03:53:03;10.82;;;6.90;;
19191;SDS011;9728;48.194;16.346;2023-03-24T03:58:08;10.75;;;7.47;;
19191;SDS011;9728;48.194;16.346;2023-03-24T04:03:35;9.45;;;6.65;;
19191;SDS011;9728;48.194;16.346;2023-03-24T04:09:08;8.38;;;6.38;;
19191;SDS011;9728;48.194;16.346;2023-03-24T04:14:36;6.63;;;4.45;;
19191;SDS011;9728;48.194;16.346;2023-03-24T04:20:05;5.10;;;4.07;;
19191;SDS011;9728;48.194;16.346;2023-03-24T04:25:17;7.05;;;3.83;;
19191;SDS011;9728;48.194;16.346;2023-03-24T04:30:32;4.18;;;3.17;;
19191;SDS011;9728;48.194;16.346;2023-03-24T04:35:45;3.95;;;2.97;;
19191;SDS011;9728;48.194;16.346;2023-03-24T04:41:01;4.20;;;3.40;;
19191;SDS011;9728;48.194;16.346;2023-03-24T04:46:10;9.02;;;6.32;;
19191;SDS011;9728;48.194;16.346;2023-03-24T04:51:25;9.20;;;6.80;;
19191;SDS011;9728;48.194;16.346;2023-03-24T04:56:38;9.50;;;6.60;;
19191;SDS011;9728;48.194;16.346;2023-03-24T05:02:05;10.70;;;6.95;;
19191;SDS011;9728;48.194;16.346;2023-03-24T05:07:21;9.75;;;6.43;;
19191;SDS011;9728;48.194;16.346;2023-03-24T05:12:29;10.13;;;6.75;;
19191;SDS011;9728;48.194;16.346;2023-03-24T05:18:00;8.13;;;6.07;;
19191;SDS011;9728;48.194;16.346;2023-03-24T05:23:04;8.52;;;6.32;;
19191;SDS011;9728;48.194;16.346;2023-03-24T05:28:08;6.95;;;5.88;;
19191;SDS011;9728;48.194;16.346;2023-03-24T05:33:13;7.85;;;5.35;;
19191;SDS011;9728;48.194;16.346;2023-03-24T05:38:17;5.57;;;4.30;;
19191;SDS011;9728;48.194;16.346;2023-03-24T05:43:26;4.90;;;4.05;;
19191;SDS011;9728;48.194;16.346;2023-03-24T05:48:40;6.00;;;4.43;;
19191;SDS011;9728;48.194;16.346;2023-03-24T05:53:49;5.25;;;4.03;;
19191;SDS011;9728;48.194;16.346;2023-03-24T05:59:04;6.07;;;4.30;;
19191;SDS011;9728;48.194;16.346;2023-03-24T06:04:41;5.32;;;3.63;;
19191;SDS011;9728;48.194;16.346;2023-03-24T06:09:50;5.60;;;4.47;;
19191;SDS011;9728;48.194;16.346;2023-03-24T06:14:55;5.68;;;4.25;;
19191;SDS011;9728;48.194;16.346;2023-03-24T06:20:00;6.78;;;4.82;;
19191;SDS011;9728;48.194;16.346;2023-03-24T06:25:20;10.50;;;6.50;;
19191;SDS011;9728;48.194;16.346;2023-03-24T06:30:45;6.85;;;5.47;;
19191;SDS011;9728;48.194;16.346;2023-03-24T06:35:57;6.30;;;5.05;;
19191;SDS011;9728;48.194;16.346;2023-03-24T06:41:04;6.25;;;4.18;;
19191;SDS011;9728;48.194;16.346;2023-03-24T06:46:09;7.75;;;4.95;;
19191;SDS011;9728;48.194;16.346;2023-03-24T06:51:17;7.35;;;4.07;;
19191;SDS011;9728;48.194;16.346;2023-03-24T06:56:21;7.28;;;4.20;;
19191;SDS011;9728;48.194;16.346;2023-03-24T07:01:30;6.18;;;4.40;;
19191;SDS011;9728;48.194;16.346;2023-03-24T07:06:56;6.25;;;4.68;;
19191;SDS011;9728;48.194;16.346;2023-03-24T07:12:26;6.85;;;4.85;;
19191;SDS011;9728;48.194;16.346;2023-03-24T07:17:31;5.97;;;5.03;;
19191;SDS011;9728;48.194;16.346;2023-03-24T07:23:49;7.53;;;4.18;;
19191;SDS011;9728;48.194;16.346;2023-03-24T07:28:57;6.13;;;3.90;;
19191;SDS011;9728;48.194;16.346;2023-03-24T07:34:13;7.15;;;4.93;;
19191;SDS011;9728;48.194;16.346;2023-03-24T07:39:24;5.50;;;4.65;;
19191;SDS011;9728;48.194;16.346;2023-03-24T07:44:28;7.53;;;5.25;;
19191;SDS011;9728;48.194;16.346;2023-03-24T07:49:34;5.55;;;4.57;;
19191;SDS011;9728;48.194;16.346;2023-03-24T07:54:44;7.13;;;5.22;;
19191;SDS011;9728;48.194;16.346;2023-03-24T08:00:07;6.70;;;4.90;;
19191;SDS011;9728;48.194;16.346;2023-03-24T08:05:23;6.05;;;5.00;;
19191;SDS011;9728;48.194;16.346;2023-03-24T08:10:50;6.57;;;4.60;;
19191;SDS011;9728;48.194;16.346;2023-03-24T08:15:53;6.15;;;4.70;;
19191;SDS011;9728;48.194;16.346;2023-03-24T08:20:57;6.28;;;3.90;;
19191;SDS011;9728;48.194;16.346;2023-03-24T08:26:03;6.38;;;4.75;;
19191;SDS011;9728;48.194;16.346;2023-03-24T08:31:07;6.60;;;4.53;;
19191;SDS011;9728;48.194;16.346;2023-03-24T08:36:11;6.22;;;4.35;;
19191;SDS011;9728;48.194;16.346;2023-03-24T08:41:16;6.18;;;4.68;;
19191;SDS011;9728;48.194;16.346;2023-03-24T08:46:19;6.22;;;5.22;;
19191;SDS011;9728;48.194;16.346;2023-03-24T08:51:23;5.95;;;5.22;;
19191;SDS011;9728;48.194;16.346;2023-03-24T08:56:28;5.63;;;4.95;;
19191;SDS011;9728;48.194;16.346;2023-03-24T09:01:32;8.27;;;5.05;;
19191;SDS011;9728;48.194;16.346;2023-03-24T09:06:35;7.43;;;5.32;;
19191;SDS011;9728;48.194;16.346;2023-03-24T09:11:40;7.82;;;6.18;;
19191;SDS011;9728;48.194;16.346;2023-03-24T09:23:27;7.25;;;5.28;;
19191;SDS011;9728;48.194;16.346;2023-03-24T09:28:33;8.30;;;6.45;;
19191;SDS011;9728;48.194;16.346;2023-03-24T09:33:36;7.50;;;5.70;;
19191;SDS011;9728;48.194;16.346;2023-03-24T09:38:40;7.53;;;5.93;;
19191;SDS011;9728;48.194;16.346;2023-03-24T09:43:45;9.00;;;6.00;;
19191;SDS011;9728;48.194;16.346;2023-03-24T09:48:53;8.35;;;6.20;;
19191;SDS011;9728;48.194;16.346;2023-03-24T09:53:59;7.32;;;6.03;;
19191;SDS011;9728;48.194;16.346;2023-03-24T09:59:12;8.82;;;6.45;;
19191;SDS011;9728;48.194;16.346;2023-03-24T10:04:20;9.82;;;6.95;;
19191;SDS011;9728;48.194;16.346;2023-03-24T10:09:27;8.50;;;6.20;;
19191;SDS011;9728;48.194;16.346;2023-03-24T10:14:40;9.98;;;7.30;;
19191;SDS011;9728;48.194;16.346;2023-03-24T10:19:53;9.10;;;6.57;;
19191;SDS011;9728;48.194;16.346;2023-03-24T10:25:05;8.77;;;6.35;;
19191;SDS011;9728;48.194;16.346;2023-03-24T10:30:18;7.30;;;5.85;;
19191;SDS011;9728;48.194;16.346;2023-03-24T10:35:26;8.90;;;6.45;;
19191;SDS011;9728;48.194;16.346;2023-03-24T10:40:31;12.18;;;5.97;;
19191;SDS011;9728;48.194;16.346;2023-03-24T10:45:36;6.68;;;5.32;;
19191;SDS011;9728;48.194;16.346;2023-03-24T10:50:43;6.82;;;5.70;;
19191;SDS011;9728;48.194;16.346;2023-03-24T10:55:49;7.93;;;5.80;;
19191;SDS011;9728;48.194;16.346;2023-03-24T11:00:54;8.18;;;5.68;;
19191;SDS011;9728;48.194;16.346;2023-03-24T11:06:01;6.13;;;5.07;;
19191;SDS011;9728;48.194;16.346;2023-03-24T11:11:13;9.07;;;5.35;;
19191;SDS011;9728;48.194;16.346;2023-03-24T11:16:34;6.13;;;4.85;;
19191;SDS011;9728;48.194;16.346;2023-03-24T11:21:40;6.93;;;5.10;;
19191;SDS011;9728;48.194;16.346;2023-03-24T11:26:45;5.72;;;4.38;;
19191;SDS011;9728;48.194;16.346;2023-03-24T11:31:57;6.43;;;5.18;;
19191;SDS011;9728;48.194;16.346;2023-03-24T11:37:02;8.40;;;5.07;;
19191;SDS011;9728;48.194;16.346;2023-03-24T11:42:12;8.48;;;5.20;;
19191;SDS011;9728;48.194;16.346;2023-03-24T11:47:23;8.95;;;5.35;;
19191;SDS011;9728;48.194;16.346;2023-03-24T11:52:32;7.65;;;4.85;;
19191;SDS011;9728;48.194;16.346;2023-03-24T11:57:43;8.00;;;4.57;;
19191;SDS011;9728;48.194;16.346;2023-03-24T12:08:33;7.00;;;5.57;;
19191;SDS011;9728;48.194;16.346;2023-03-24T12:13:47;8.73;;;5.18;;
19191;SDS011;9728;48.194;16.346;2023-03-24T12:20:11;6.13;;;4.60;;
19191;SDS011;9728;48.194;16.346;2023-03-24T12:25:27;6.38;;;4.57;;
19191;SDS011;9728;48.194;16.346;2023-03-24T12:30:36;5.70;;;4.55;;
19191;SDS011;9728;48.194;16.346;2023-03-24T12:35:52;5.55;;;4.47;;
19191;SDS011;9728;48.194;16.346;2023-03-24T12:41:11;5.43;;;4.43;;
19191;SDS011;9728;48.194;16.346;2023-03-24T12:46:30;6.00;;;4.10;;
19191;SDS011;9728;48.194;16.346;2023-03-24T12:51:52;5.45;;;4.18;;
19191;SDS011;9728;48.194;16.346;2023-03-24T12:57:11;7.07;;;5.03;;
19191;SDS011;9728;48.194;16.346;2023-03-24T13:02:21;5.13;;;3.80;;
19191;SDS011;9728;48.194;16.346;2023-03-24T13:07:30;8.20;;;3.85;;
19191;SDS011;9728;48.194;16.346;2023-03-24T13:12:40;4.47;;;3.70;;
19191;SDS011;9728;48.194;16.346;2023-03-24T13:17:48;5.50;;;3.97;;
19191;SDS011;9728;48.194;16.346;2023-03-24T13:22:56;6.00;;;4.47;;
19191;SDS011;9728;48.194;16.346;2023-03-24T13:28:05;5.75;;;4.18;;
19191;SDS011;9728;48.194;16.346;2023-03-24T13:33:15;4.70;;;4.20;;
19191;SDS011;9728;48.194;16.346;2023-03-24T13:38:25;7.47;;;4.55;;
19191;SDS011;9728;48.194;16.346;2023-03-24T13:43:35;7.68;;;4.80;;
19191;SDS011;9728;48.194;16.346;2023-03-24T13:48:49;5.78;;;4.43;;
19191;SDS011;9728;48.194;16.346;2023-03-24T13:53:57;6.38;;;4.60;;
19191;SDS011;9728;48.194;16.346;2023-03-24T14:04:42;4.68;;;4.13;;
19191;SDS011;9728;48.194;16.346;2023-03-24T14:09:57;3.92;;;3.47;;
19191;SDS011;9728;48.194;16.346;2023-03-24T14:15:12;5.20;;;3.60;;
19191;SDS011;9728;48.194;16.346;2023-03-24T14:20:31;5.97;;;3.63;;
19191;SDS011;9728;48.194;16.346;2023-03-24T14:26:49;6.50;;;4.22;;
19191;SDS011;9728;48.194;16.346;2023-03-24T14:31:57;4.38;;;3.60;;
19191;SDS011;9728;48.194;16.346;2023-03-24T14:37:20;3.72;;;2.70;;
19191;SDS011;9728;48.194;16.346;2023-03-24T14:47:56;3.10;;;2.33;;
19191;SDS011;9728;48.194;16.346;2023-03-24T14:53:02;4.82;;;2.38;;
19191;SDS011;9728;48.194;16.346;2023-03-24T14:58:10;4.50;;;2.30;;
19191;SDS011;9728;48.194;16.346;2023-03-24T15:03:24;3.30;;;2.00;;
19191;SDS011;9728;48.194;16.346;2023-03-24T15:08:35;2.88;;;1.80;;
19191;SDS011;9728;48.194;16.346;2023-03-24T15:13:44;3.28;;;2.05;;
19191;SDS011;9728;48.194;16.346;2023-03-24T15:18:52;2.10;;;1.65;;
19191;SDS011;9728;48.194;16.346;2023-03-24T15:24:19;4.25;;;1.90;;
19191;SDS011;9728;48.194;16.346;2023-03-24T15:29:29;1.83;;;1.60;;
19191;SDS011;9728;48.194;16.346;2023-03-24T15:34:34;2.97;;;1.63;;
19191;SDS011;9728;48.194;16.346;2023-03-24T15:39:41;1.30;;;1.13;;
19191;SDS011;9728;48.194;16.346;2023-03-24T15:45:07;1.27;;;1.00;;
19191;SDS011;9728;48.194;16.346;2023-03-24T15:50:27;1.27;;;1.00;;
19191;SDS011;9728;48.194;16.346;2023-03-24T15:55:33;1.15;;;0.88;;
19191;SDS011;9728;48.194;16.346;2023-03-24T16:00:39;0.93;;;0.77;;
19191;SDS011;9728;48.194;16.346;2023-03-24T16:05:46;1.15;;;0.85;;
19191;SDS011;9728;48.194;16.346;2023-03-24T16:10:55;1.10;;;0.90;;
19191;SDS011;9728;48.194;16.346;2023-03-24T16:16:07;1.00;;;0.90;;
19191;SDS011;9728;48.194;16.346;2023-03-24T16:21:24;1.02;;;0.80;;
19191;SDS011;9728;48.194;16.346;2023-03-24T16:26:29;1.23;;;0.90;;
19191;SDS011;9728;48.194;16.346;2023-03-24T16:31:34;1.00;;;0.90;;
19191;SDS011;9728;48.194;16.346;2023-03-24T16:36:38;1.52;;;1.00;;
19191;SDS011;9728;48.194;16.346;2023-03-24T16:41:41;2.45;;;0.90;;
19191;SDS011;9728;48.194;16.346;2023-03-24T16:46:47;1.55;;;1.10;;
19191;SDS011;9728;48.194;16.346;2023-03-24T16:51:54;1.63;;;1.30;;
19191;SDS011;9728;48.194;16.346;2023-03-24T16:56:57;1.90;;;1.30;;
19191;SDS011;9728;48.194;16.346;2023-03-24T17:02:02;1.77;;;1.33;;
19191;SDS011;9728;48.194;16.346;2023-03-24T17:07:06;2.08;;;1.65;;
19191;SDS011;9728;48.194;16.346;2023-03-24T17:12:11;1.67;;;1.40;;
19191;SDS011;9728;48.194;16.346;2023-03-24T17:17:17;2.22;;;1.15;;
19191;SDS011;9728;48.194;16.346;2023-03-24T17:22:21;1.63;;;1.20;;
19191;SDS011;9728;48.194;16.346;2023-03-24T17:27:26;1.20;;;1.10;;
19191;SDS011;9728;48.194;16.346;2023-03-24T17:32:32;2.30;;;1.20;;
19191;SDS011;9728;48.194;16.346;2023-03-24T17:37:39;2.60;;;1.50;;
19191;SDS011;9728;48.194;16.346;2023-03-24T17:42:44;1.35;;;1.25;;
19191;SDS011;9728;48.194;16.346;2023-03-24T17:47:52;2.65;;;1.58;;
19191;SDS011;9728;48.194;16.346;2023-03-24T17:52:56;1.55;;;1.20;;
19191;SDS011;9728;48.194;16.346;2023-03-24T17:58:02;1.40;;;1.30;;
19191;SDS011;9728;48.194;16.346;2023-03-24T18:03:13;1.15;;;1.05;;
19191;SDS011;9728;48.194;16.346;2023-03-24T18:08:18;4.53;;;1.63;;
19191;SDS011;9728;48.194;16.346;2023-03-24T18:13:22;1.90;;;1.25;;
19191;SDS011;9728;48.194;16.346;2023-03-24T18:18:31;2.20;;;1.30;;
19191;SDS011;9728;48.194;16.346;2023-03-24T18:23:35;1.80;;;1.27;;
19191;SDS011;9728;48.194;16.346;2023-03-24T18:28:41;1.67;;;1.17;;
19191;SDS011;9728;48.194;16.346;2023-03-24T18:33:52;1.65;;;1.40;;
19191;SDS011;9728;48.194;16.346;2023-03-24T18:38:58;2.42;;;1.17;;
19191;SDS011;9728;48.194;16.346;2023-03-24T18:44:05;2.65;;;1.27;;
19191;SDS011;9728;48.194;16.346;2023-03-24T18:49:14;1.13;;;1.02;;
19191;SDS011;9728;48.194;16.346;2023-03-24T18:54:20;1.70;;;1.00;;
19191;SDS011;9728;48.194;16.346;2023-03-24T18:59:25;1.38;;;1.08;;
19191;SDS011;9728;48.194;16.346;2023-03-24T19:04:34;1.92;;;1.17;;
19191;SDS011;9728;48.194;16.346;2023-03-24T19:09:40;1.80;;;1.33;;
19191;SDS011;9728;48.194;16.346;2023-03-24T19:14:47;1.50;;;1.20;;
19191;SDS011;9728;48.194;16.346;2023-03-24T19:19:57;1.73;;;1.33;;
19191;SDS011;9728;48.194;16.346;2023-03-24T19:25:02;1.95;;;1.45;;
19191;SDS011;9728;48.194;16.346;2023-03-24T19:30:11;1.85;;;1.35;;
19191;SDS011;9728;48.194;16.346;2023-03-24T19:35:21;2.63;;;1.73;;
19191;SDS011;9728;48.194;16.346;2023-03-24T19:40:27;2.00;;;1.75;;
19191;SDS011;9728;48.194;16.346;2023-03-24T19:45:34;2.00;;;1.80;;
19191;SDS011;9728;48.194;16.346;2023-03-24T19:50:47;1.75;;;1.50;;
19191;SDS011;9728;48.194;16.346;2023-03-24T19:55:54;2.40;;;1.77;;
19191;SDS011;9728;48.194;16.346;2023-03-24T20:01:00;2.28;;;1.75;;
19191;SDS011;9728;48.194;16.346;2023-03-24T20:06:08;2.58;;;2.00;;
19191;SDS011;9728;48.194;16.346;2023-03-24T20:11:14;3.88;;;2.28;;
19191;SDS011;9728;48.194;16.346;2023-03-24T20:16:19;3.03;;;2.10;;
19191;SDS011;9728;48.194;16.346;2023-03-24T20:21:27;3.50;;;2.20;;
19191;SDS011;9728;48.194;16.346;2023-03-24T20:26:34;4.38;;;2.67;;
19191;SDS011;9728;48.194;16.346;2023-03-24T20:31:39;3.42;;;2.70;;
19191;SDS011;9728;48.194;16.346;2023-03-24T20:36:48;3.47;;;2.40;;
19191;SDS011;9728;48.194;16.346;2023-03-24T20:41:53;5.70;;;2.50;;
19191;SDS011;9728;48.194;16.346;2023-03-24T20:47:00;3.20;;;2.80;;
19191;SDS011;9728;48.194;16.346;2023-03-24T20:52:08;3.63;;;2.95;;
19191;SDS011;9728;48.194;16.346;2023-03-24T20:57:16;3.50;;;2.17;;
19191;SDS011;9728;48.194;16.346;2023-03-24T21:02:21;2.80;;;1.90;;
19191;SDS011;9728;48.194;16.346;2023-03-24T21:07:28;1.50;;;1.40;;
19191;SDS011;9728;48.194;16.346;2023-03-24T21:12:34;5.00;;;2.10;;
19191;SDS011;9728;48.194;16.346;2023-03-24T21:17:54;1.75;;;1.45;;
19191;SDS011;9728;48.194;16.346;2023-03-24T21:23:01;1.50;;;1.40;;
19191;SDS011;9728;48.194;16.346;2023-03-24T21:28:05;1.15;;;1.05;;
19191;SDS011;9728;48.194;16.346;2023-03-24T21:33:11;1.17;;;1.08;;
19191;SDS011;9728;48.194;16.346;2023-03-24T21:38:18;1.05;;;0.95;;
19191;SDS011;9728;48.194;16.346;2023-03-24T21:43:22;1.55;;;1.08;;
19191;SDS011;9728;48.194;16.346;2023-03-24T21:48:28;1.40;;;1.00;;
19191;SDS011;9728;48.194;16.346;2023-03-24T21:53:37;0.68;;;0.68;;
19191;SDS011;9728;48.194;16.346;2023-03-24T21:58:40;0.90;;;0.70;;
19191;SDS011;9728;48.194;16.346;2023-03-24T22:03:43;1.45;;;0.80;;
19191;SDS011;9728;48.194;16.346;2023-03-24T22:08:48;1.20;;;0.60;;
19191;SDS011;9728;48.194;16.346;2023-03-24T22:13:53;0.60;;;0.60;;
19191;SDS011;9728;48.194;16.346;2023-03-24T22:18:57;0.73;;;0.60;;
19191;SDS011;9728;48.194;16.346;2023-03-24T22:24:04;0.70;;;0.70;;
19191;SDS011;9728;48.194;16.346;2023-03-24T22:29:08;0.40;;;0.40;;
19191;SDS011;9728;48.194;16.346;2023-03-24T22:34:11;0.52;;;0.52;;
19191;SDS011;9728;48.194;16.346;2023-03-24T22:39:16;0.50;;;0.50;;
19191;SDS011;9728;48.194;16.346;2023-03-24T22:44:19;0.30;;;0.30;;
19191;SDS011;9728;48.194;16.346;2023-03-24T22:49:23;0.30;;;0.30;;
19191;SDS011;9728;48.194;16.346;2023-03-24T22:54:29;0.43;;;0.40;;
19191;SDS011;9728;48.194;16.346;2023-03-24T22:59:32;0.60;;;0.60;;
19191;SDS011;9728;48.194;16.346;2023-03-24T23:04:36;0.68;;;0.50;;
19191;SDS011;9728;48.194;16.346;2023-03-24T23:09:42;1.13;;;0.70;;
19191;SDS011;9728;48.194;16.346;2023-03-24T23:14:45;0.30;;;0.30;;
19191;SDS011;9728;48.194;16.346;2023-03-24T23:19:49;0.77;;;0.57;;
19191;SDS011;9728;48.194;16.346;2023-03-24T23:24:53;0.38;;;0.38;;
19191;SDS011;9728;48.194;16.346;2023-03-24T23:30:05;0.75;;;0.30;;
19191;SDS011;9728;48.194;16.346;2023-03-24T23:35:11;0.52;;;0.45;;
19191;SDS011;9728;48.194;16.346;2023-03-24T23:40:16;0.38;;;0.38;;
19191;SDS011;9728;48.194;16.346;2023-03-24T23:45:20;0.25;;;0.25;;
19191;SDS011;9728;48.194;16.346;2023-03-24T23:50:23;0.30;;;0.30;;
19191;SDS011;9728;48.194;16.346;2023-03-24T23:55:29;0.50;;;0.40;;
